sensor_id;sensor_type;location;lat;lon;timestamp;temperature;humidity
11047;DHT22;5576;50.008;10.596;2024-02-21T00:00:22;9.00;99.90
11047;DHT22;5576;50.008;10.596;2024-02-21T00:02:48;9.00;99.90
11047;DHT22;5576;50.008;10.596;2024-02-21T00:05:14;9.00;99.90
11047;DHT22;5576;50.008;10.596;2024-02-21T00:07:40;9.00;99.90
11047;DHT22;5576;50.008;10.596;2024-02-21T00:10:06;9.00;99.90
11047;DHT22;5576;50.008;10.596;2024-02-21T00:12:32;8.90;99.90
11047;DHT22;5576;50.008;10.596;2024-02-21T00:14:57;8.90;99.90
11047;DHT22;5576;50.008;10.596;2024-02-21T00:17:23;8.90;99.90
11047;DHT22;5576;50.008;10.596;2024-02-21T00:19:51;8.90;99.90
11047;DHT22;5576;50.008;10.596;2024-02-21T00:22:17;8.90;99.90
11047;DHT22;5576;50.008;10.596;2024-02-21T00:24:43;8.90;99.90
11047;DHT22;5576;50.008;10.596;2024-02-21T00:27:08;8.90;99.90
11047;DHT22;5576;50.008;10.596;2024-02-21T00:29:34;8.90;99.90
11047;DHT22;5576;50.008;10.596;2024-02-21T00:32:00;8.90;99.90
11047;DHT22;5576;50.008;10.596;2024-02-21T00:34:26;8.80;99.90
11047;DHT22;5576;50.008;10.596;2024-02-21T00:36:53;8.80;99.90
11047;DHT22;5576;50.008;10.596;2024-02-21T00:39:19;8.80;99.90
11047;DHT22;5576;50.008;10.596;2024-02-21T00:41:44;8.70;99.90
11047;DHT22;5576;50.008;10.596;2024-02-21T00:44:10;8.70;99.90
11047;DHT22;5576;50.008;10.596;2024-02-21T00:46:36;8.70;99.90
11047;DHT22;5576;50.008;10.596;2024-02-21T00:49:04;8.70;99.90
11047;DHT22;5576;50.008;10.596;2024-02-21T00:51:30;8.70;99.90
11047;DHT22;5576;50.008;10.596;2024-02-21T00:53:55;12.70;99.90
11047;DHT22;5576;50.008;10.596;2024-02-21T00:56:21;8.70;99.90
11047;DHT22;5576;50.008;10.596;2024-02-21T00:58:47;8.70;99.90
11047;DHT22;5576;50.008;10.596;2024-02-21T01:01:12;7.80;99.90
11047;DHT22;5576;50.008;10.596;2024-02-21T01:03:39;8.70;99.90
11047;DHT22;5576;50.008;10.596;2024-02-21T01:06:06;8.60;99.90
11047;DHT22;5576;50.008;10.596;2024-02-21T01:08:32;8.70;99.90
11047;DHT22;5576;50.008;10.596;2024-02-21T01:10:57;8.70;99.90
11047;DHT22;5576;50.008;10.596;2024-02-21T01:13:23;8.50;99.90
11047;DHT22;5576;50.008;10.596;2024-02-21T01:15:49;8.60;99.90
11047;DHT22;5576;50.008;10.596;2024-02-21T01:18:14;5.90;99.90
11047;DHT22;5576;50.008;10.596;2024-02-21T01:20:40;8.70;99.90
11047;DHT22;5576;50.008;10.596;2024-02-21T01:23:06;8.10;99.90
11047;DHT22;5576;50.008;10.596;2024-02-21T01:25:32;8.70;99.90
11047;DHT22;5576;50.008;10.596;2024-02-21T01:27:57;8.70;99.90
11047;DHT22;5576;50.008;10.596;2024-02-21T01:30:23;8.70;99.90
11047;DHT22;5576;50.008;10.596;2024-02-21T01:32:49;8.70;99.90
11047;DHT22;5576;50.008;10.596;2024-02-21T01:35:14;5.30;99.90
11047;DHT22;5576;50.008;10.596;2024-02-21T01:37:40;8.90;99.90
11047;DHT22;5576;50.008;10.596;2024-02-21T01:40:07;9.30;99.90
11047;DHT22;5576;50.008;10.596;2024-02-21T01:42:32;8.80;99.90
11047;DHT22;5576;50.008;10.596;2024-02-21T01:44:58;8.80;99.90
11047;DHT22;5576;50.008;10.596;2024-02-21T01:47:24;8.80;99.90
11047;DHT22;5576;50.008;10.596;2024-02-21T01:49:50;8.70;99.90
11047;DHT22;5576;50.008;10.596;2024-02-21T01:52:16;8.70;99.90
11047;DHT22;5576;50.008;10.596;2024-02-21T01:54:44;8.70;99.90
11047;DHT22;5576;50.008;10.596;2024-02-21T01:57:10;8.80;99.90
11047;DHT22;5576;50.008;10.596;2024-02-21T01:59:35;8.90;99.90
11047;DHT22;5576;50.008;10.596;2024-02-21T02:02:02;12.30;99.90
11047;DHT22;5576;50.008;10.596;2024-02-21T02:04:27;8.90;99.90
11047;DHT22;5576;50.008;10.596;2024-02-21T02:06:54;8.90;99.90
11047;DHT22;5576;50.008;10.596;2024-02-21T02:09:21;8.20;99.90
11047;DHT22;5576;50.008;10.596;2024-02-21T02:11:46;8.80;99.90
11047;DHT22;5576;50.008;10.596;2024-02-21T02:14:12;8.80;99.90
11047;DHT22;5576;50.008;10.596;2024-02-21T02:16:38;8.80;99.90
11047;DHT22;5576;50.008;10.596;2024-02-21T02:19:04;8.80;99.90
11047;DHT22;5576;50.008;10.596;2024-02-21T02:21:34;8.80;99.90
11047;DHT22;5576;50.008;10.596;2024-02-21T02:24:02;8.80;99.90
11047;DHT22;5576;50.008;10.596;2024-02-21T02:26:28;8.80;99.90
11047;DHT22;5576;50.008;10.596;2024-02-21T02:28:54;8.90;99.90
11047;DHT22;5576;50.008;10.596;2024-02-21T02:31:20;8.90;99.90
11047;DHT22;5576;50.008;10.596;2024-02-21T02:33:45;8.90;99.90
11047;DHT22;5576;50.008;10.596;2024-02-21T02:36:11;10.80;99.90
11047;DHT22;5576;50.008;10.596;2024-02-21T02:38:37;8.90;99.90
11047;DHT22;5576;50.008;10.596;2024-02-21T02:41:03;8.90;99.90
11047;DHT22;5576;50.008;10.596;2024-02-21T02:43:29;8.90;99.90
11047;DHT22;5576;50.008;10.596;2024-02-21T02:45:55;8.90;99.90
11047;DHT22;5576;50.008;10.596;2024-02-21T02:48:21;8.90;99.90
11047;DHT22;5576;50.008;10.596;2024-02-21T02:50:47;8.90;99.90
11047;DHT22;5576;50.008;10.596;2024-02-21T02:53:12;8.90;99.90
11047;DHT22;5576;50.008;10.596;2024-02-21T02:55:38;8.90;99.90
11047;DHT22;5576;50.008;10.596;2024-02-21T02:58:04;7.10;99.90
11047;DHT22;5576;50.008;10.596;2024-02-21T03:00:30;8.90;99.90
11047;DHT22;5576;50.008;10.596;2024-02-21T03:02:56;8.80;99.90
11047;DHT22;5576;50.008;10.596;2024-02-21T03:05:22;8.80;99.90
11047;DHT22;5576;50.008;10.596;2024-02-21T03:07:48;8.50;99.90
11047;DHT22;5576;50.008;10.596;2024-02-21T03:10:15;8.70;99.90
11047;DHT22;5576;50.008;10.596;2024-02-21T03:12:42;8.60;99.90
11047;DHT22;5576;50.008;10.596;2024-02-21T03:15:08;8.70;99.90
11047;DHT22;5576;50.008;10.596;2024-02-21T03:17:34;8.70;99.90
11047;DHT22;5576;50.008;10.596;2024-02-21T03:20:01;8.70;99.90
11047;DHT22;5576;50.008;10.596;2024-02-21T03:22:31;8.40;99.90
11047;DHT22;5576;50.008;10.596;2024-02-21T03:24:57;6.00;99.90
11047;DHT22;5576;50.008;10.596;2024-02-21T03:27:23;8.60;99.90
11047;DHT22;5576;50.008;10.596;2024-02-21T03:29:49;8.70;99.90
11047;DHT22;5576;50.008;10.596;2024-02-21T03:32:14;8.70;99.90
11047;DHT22;5576;50.008;10.596;2024-02-21T03:34:40;8.60;99.90
11047;DHT22;5576;50.008;10.596;2024-02-21T03:37:06;8.70;99.90
11047;DHT22;5576;50.008;10.596;2024-02-21T03:39:32;8.60;99.90
11047;DHT22;5576;50.008;10.596;2024-02-21T03:41:58;8.50;99.90
11047;DHT22;5576;50.008;10.596;2024-02-21T03:44:30;7.50;99.90
11047;DHT22;5576;50.008;10.596;2024-02-21T03:46:56;9.00;99.90
11047;DHT22;5576;50.008;10.596;2024-02-21T03:49:22;8.30;99.90
11047;DHT22;5576;50.008;10.596;2024-02-21T03:51:48;8.40;99.90
11047;DHT22;5576;50.008;10.596;2024-02-21T03:54:13;8.40;99.90
11047;DHT22;5576;50.008;10.596;2024-02-21T03:56:39;8.40;99.90
11047;DHT22;5576;50.008;10.596;2024-02-21T03:59:07;8.50;99.90
11047;DHT22;5576;50.008;10.596;2024-02-21T04:01:34;8.50;99.90
11047;DHT22;5576;50.008;10.596;2024-02-21T04:04:00;8.60;99.90
11047;DHT22;5576;50.008;10.596;2024-02-21T04:06:26;8.60;99.90
11047;DHT22;5576;50.008;10.596;2024-02-21T04:08:52;8.70;99.90
11047;DHT22;5576;50.008;10.596;2024-02-21T04:11:17;8.60;99.90
11047;DHT22;5576;50.008;10.596;2024-02-21T04:13:45;12.60;99.90
11047;DHT22;5576;50.008;10.596;2024-02-21T04:16:14;9.00;99.90
11047;DHT22;5576;50.008;10.596;2024-02-21T04:18:40;8.40;99.90
11047;DHT22;5576;50.008;10.596;2024-02-21T04:21:06;8.30;99.90
11047;DHT22;5576;50.008;10.596;2024-02-21T04:23:31;8.30;99.90
11047;DHT22;5576;50.008;10.596;2024-02-21T04:25:57;8.30;99.90
11047;DHT22;5576;50.008;10.596;2024-02-21T04:28:23;8.30;99.90
11047;DHT22;5576;50.008;10.596;2024-02-21T04:30:48;8.30;99.90
11047;DHT22;5576;50.008;10.596;2024-02-21T04:33:14;8.40;99.90
11047;DHT22;5576;50.008;10.596;2024-02-21T04:35:40;10.10;99.90
11047;DHT22;5576;50.008;10.596;2024-02-21T04:38:06;8.30;99.90
11047;DHT22;5576;50.008;10.596;2024-02-21T04:40:31;8.30;99.90
11047;DHT22;5576;50.008;10.596;2024-02-21T04:42:58;8.20;99.90
11047;DHT22;5576;50.008;10.596;2024-02-21T04:45:23;8.10;99.90
11047;DHT22;5576;50.008;10.596;2024-02-21T04:47:49;8.10;99.90
11047;DHT22;5576;50.008;10.596;2024-02-21T04:50:15;11.90;99.90
11047;DHT22;5576;50.008;10.596;2024-02-21T04:52:41;8.20;99.90
11047;DHT22;5576;50.008;10.596;2024-02-21T04:55:07;8.30;99.90
11047;DHT22;5576;50.008;10.596;2024-02-21T04:57:33;8.30;99.90
11047;DHT22;5576;50.008;10.596;2024-02-21T04:59:59;8.40;99.90
11047;DHT22;5576;50.008;10.596;2024-02-21T05:02:24;7.10;99.90
11047;DHT22;5576;50.008;10.596;2024-02-21T05:04:52;11.70;99.90
11047;DHT22;5576;50.008;10.596;2024-02-21T05:07:18;8.50;99.90
11047;DHT22;5576;50.008;10.596;2024-02-21T05:09:45;8.40;99.90
11047;DHT22;5576;50.008;10.596;2024-02-21T05:12:11;8.50;99.90
11047;DHT22;5576;50.008;10.596;2024-02-21T05:14:37;8.50;99.90
11047;DHT22;5576;50.008;10.596;2024-02-21T05:17:04;8.50;99.90
11047;DHT22;5576;50.008;10.596;2024-02-21T05:19:30;8.50;99.90
11047;DHT22;5576;50.008;10.596;2024-02-21T05:21:55;8.40;99.90
11047;DHT22;5576;50.008;10.596;2024-02-21T05:24:21;8.40;99.90
11047;DHT22;5576;50.008;10.596;2024-02-21T05:26:47;8.40;99.90
11047;DHT22;5576;50.008;10.596;2024-02-21T05:29:13;8.50;99.90
11047;DHT22;5576;50.008;10.596;2024-02-21T05:31:55;8.60;99.90
11047;DHT22;5576;50.008;10.596;2024-02-21T05:34:23;8.50;99.90
11047;DHT22;5576;50.008;10.596;2024-02-21T05:36:49;8.50;99.90
11047;DHT22;5576;50.008;10.596;2024-02-21T05:39:16;8.50;99.90
11047;DHT22;5576;50.008;10.596;2024-02-21T05:41:42;8.50;99.90
11047;DHT22;5576;50.008;10.596;2024-02-21T05:44:08;5.00;99.90
11047;DHT22;5576;50.008;10.596;2024-02-21T05:46:34;7.10;99.90
11047;DHT22;5576;50.008;10.596;2024-02-21T05:49:00;8.60;99.90
11047;DHT22;5576;50.008;10.596;2024-02-21T05:51:26;8.50;99.90
11047;DHT22;5576;50.008;10.596;2024-02-21T05:53:52;8.50;99.90
11047;DHT22;5576;50.008;10.596;2024-02-21T05:56:17;8.50;99.90
11047;DHT22;5576;50.008;10.596;2024-02-21T05:58:43;10.60;99.90
11047;DHT22;5576;50.008;10.596;2024-02-21T06:01:10;8.50;99.90
11047;DHT22;5576;50.008;10.596;2024-02-21T06:03:36;8.40;99.90
11047;DHT22;5576;50.008;10.596;2024-02-21T06:06:02;8.40;99.90
11047;DHT22;5576;50.008;10.596;2024-02-21T06:08:28;12.00;99.90
11047;DHT22;5576;50.008;10.596;2024-02-21T06:10:54;8.50;99.90
11047;DHT22;5576;50.008;10.596;2024-02-21T06:13:21;8.50;99.90
11047;DHT22;5576;50.008;10.596;2024-02-21T06:15:48;8.50;99.90
11047;DHT22;5576;50.008;10.596;2024-02-21T06:18:14;8.50;99.90
11047;DHT22;5576;50.008;10.596;2024-02-21T06:20:40;8.50;99.90
11047;DHT22;5576;50.008;10.596;2024-02-21T06:23:08;8.40;99.90
11047;DHT22;5576;50.008;10.596;2024-02-21T06:25:34;8.50;99.90
11047;DHT22;5576;50.008;10.596;2024-02-21T06:28:00;8.50;99.90
11047;DHT22;5576;50.008;10.596;2024-02-21T06:30:25;8.60;99.90
11047;DHT22;5576;50.008;10.596;2024-02-21T06:32:52;8.50;99.90
11047;DHT22;5576;50.008;10.596;2024-02-21T06:35:18;8.30;99.90
11047;DHT22;5576;50.008;10.596;2024-02-21T06:37:44;8.30;99.90
11047;DHT22;5576;50.008;10.596;2024-02-21T06:40:16;8.30;99.90
11047;DHT22;5576;50.008;10.596;2024-02-21T06:42:42;8.30;99.90
11047;DHT22;5576;50.008;10.596;2024-02-21T06:45:08;8.40;99.90
11047;DHT22;5576;50.008;10.596;2024-02-21T06:47:34;8.40;99.90
11047;DHT22;5576;50.008;10.596;2024-02-21T06:49:59;8.30;99.90
11047;DHT22;5576;50.008;10.596;2024-02-21T06:52:25;6.40;99.90
11047;DHT22;5576;50.008;10.596;2024-02-21T06:54:52;8.30;99.90
11047;DHT22;5576;50.008;10.596;2024-02-21T06:57:17;8.30;99.90
11047;DHT22;5576;50.008;10.596;2024-02-21T06:59:43;8.20;99.90
11047;DHT22;5576;50.008;10.596;2024-02-21T07:02:09;8.30;99.90
11047;DHT22;5576;50.008;10.596;2024-02-21T07:04:35;8.50;99.90
11047;DHT22;5576;50.008;10.596;2024-02-21T07:07:00;8.40;99.90
11047;DHT22;5576;50.008;10.596;2024-02-21T07:09:26;8.50;99.90
11047;DHT22;5576;50.008;10.596;2024-02-21T07:11:54;8.50;99.90
11047;DHT22;5576;50.008;10.596;2024-02-21T07:14:20;8.60;99.90
11047;DHT22;5576;50.008;10.596;2024-02-21T07:16:45;8.60;99.90
11047;DHT22;5576;50.008;10.596;2024-02-21T07:19:11;6.00;99.90
11047;DHT22;5576;50.008;10.596;2024-02-21T07:21:37;8.50;99.90
11047;DHT22;5576;50.008;10.596;2024-02-21T07:24:06;8.60;99.90
11047;DHT22;5576;50.008;10.596;2024-02-21T07:26:33;7.90;99.90
11047;DHT22;5576;50.008;10.596;2024-02-21T07:28:59;8.50;99.90
11047;DHT22;5576;50.008;10.596;2024-02-21T07:31:24;8.50;99.90
11047;DHT22;5576;50.008;10.596;2024-02-21T07:33:50;8.60;99.90
11047;DHT22;5576;50.008;10.596;2024-02-21T07:36:23;8.70;99.90
11047;DHT22;5576;50.008;10.596;2024-02-21T07:38:49;8.70;99.90
11047;DHT22;5576;50.008;10.596;2024-02-21T07:41:15;8.70;99.90
11047;DHT22;5576;50.008;10.596;2024-02-21T07:43:41;8.80;99.90
11047;DHT22;5576;50.008;10.596;2024-02-21T07:46:07;8.70;99.90
11047;DHT22;5576;50.008;10.596;2024-02-21T07:48:33;8.70;99.90
11047;DHT22;5576;50.008;10.596;2024-02-21T07:50:58;8.60;99.90
11047;DHT22;5576;50.008;10.596;2024-02-21T07:53:24;8.60;99.90
11047;DHT22;5576;50.008;10.596;2024-02-21T07:55:50;8.70;99.90
11047;DHT22;5576;50.008;10.596;2024-02-21T07:58:15;8.80;99.90
11047;DHT22;5576;50.008;10.596;2024-02-21T08:00:41;8.70;99.90
11047;DHT22;5576;50.008;10.596;2024-02-21T08:03:07;6.00;99.90
11047;DHT22;5576;50.008;10.596;2024-02-21T08:05:34;8.90;99.90
11047;DHT22;5576;50.008;10.596;2024-02-21T08:08:00;8.80;99.90
11047;DHT22;5576;50.008;10.596;2024-02-21T08:10:26;11.50;99.90
11047;DHT22;5576;50.008;10.596;2024-02-21T08:12:52;8.90;99.90
11047;DHT22;5576;50.008;10.596;2024-02-21T08:15:17;8.80;99.90
11047;DHT22;5576;50.008;10.596;2024-02-21T08:17:43;8.70;99.90
11047;DHT22;5576;50.008;10.596;2024-02-21T08:20:09;8.80;99.90
11047;DHT22;5576;50.008;10.596;2024-02-21T08:22:37;8.70;99.90
11047;DHT22;5576;50.008;10.596;2024-02-21T08:25:04;8.90;99.90
11047;DHT22;5576;50.008;10.596;2024-02-21T08:27:31;8.90;99.90
11047;DHT22;5576;50.008;10.596;2024-02-21T08:29:57;9.00;99.90
11047;DHT22;5576;50.008;10.596;2024-02-21T08:32:22;5.20;99.90
11047;DHT22;5576;50.008;10.596;2024-02-21T08:34:48;8.90;99.90
11047;DHT22;5576;50.008;10.596;2024-02-21T08:37:14;9.00;99.90
11047;DHT22;5576;50.008;10.596;2024-02-21T08:39:39;8.90;99.90
11047;DHT22;5576;50.008;10.596;2024-02-21T08:42:05;8.90;99.90
11047;DHT22;5576;50.008;10.596;2024-02-21T08:44:31;9.00;99.90
11047;DHT22;5576;50.008;10.596;2024-02-21T08:46:57;9.00;99.90
11047;DHT22;5576;50.008;10.596;2024-02-21T08:49:23;9.00;99.90
11047;DHT22;5576;50.008;10.596;2024-02-21T08:51:48;9.00;99.90
11047;DHT22;5576;50.008;10.596;2024-02-21T08:54:14;9.00;99.90
11047;DHT22;5576;50.008;10.596;2024-02-21T08:56:40;12.50;99.90
11047;DHT22;5576;50.008;10.596;2024-02-21T08:59:05;9.10;99.90
11047;DHT22;5576;50.008;10.596;2024-02-21T09:01:31;7.00;99.90
11047;DHT22;5576;50.008;10.596;2024-02-21T09:03:57;9.10;99.90
11047;DHT22;5576;50.008;10.596;2024-02-21T09:06:23;10.90;99.90
11047;DHT22;5576;50.008;10.596;2024-02-21T09:08:49;9.20;99.90
11047;DHT22;5576;50.008;10.596;2024-02-21T09:11:15;9.10;99.90
11047;DHT22;5576;50.008;10.596;2024-02-21T09:13:40;9.10;99.90
11047;DHT22;5576;50.008;10.596;2024-02-21T09:16:06;9.20;99.90
11047;DHT22;5576;50.008;10.596;2024-02-21T09:18:32;9.30;99.90
11047;DHT22;5576;50.008;10.596;2024-02-21T09:20:58;9.20;99.90
11047;DHT22;5576;50.008;10.596;2024-02-21T09:23:25;9.20;99.90
11047;DHT22;5576;50.008;10.596;2024-02-21T09:25:50;9.40;99.90
11047;DHT22;5576;50.008;10.596;2024-02-21T09:28:16;9.10;99.90
11047;DHT22;5576;50.008;10.596;2024-02-21T09:30:42;9.30;99.90
11047;DHT22;5576;50.008;10.596;2024-02-21T09:33:08;9.00;99.90
11047;DHT22;5576;50.008;10.596;2024-02-21T09:35:34;9.40;99.90
11047;DHT22;5576;50.008;10.596;2024-02-21T09:38:00;9.40;99.90
11047;DHT22;5576;50.008;10.596;2024-02-21T09:40:25;9.50;99.90
11047;DHT22;5576;50.008;10.596;2024-02-21T09:43:02;9.50;99.90
11047;DHT22;5576;50.008;10.596;2024-02-21T09:45:29;9.40;99.90
11047;DHT22;5576;50.008;10.596;2024-02-21T09:50:47;9.30;99.90
11047;DHT22;5576;50.008;10.596;2024-02-21T09:53:15;9.40;99.90
11047;DHT22;5576;50.008;10.596;2024-02-21T09:55:43;9.50;99.90
11047;DHT22;5576;50.008;10.596;2024-02-21T09:58:09;9.50;99.90
11047;DHT22;5576;50.008;10.596;2024-02-21T10:00:35;9.50;99.90
11047;DHT22;5576;50.008;10.596;2024-02-21T10:03:02;13.50;99.90
11047;DHT22;5576;50.008;10.596;2024-02-21T10:05:35;13.60;99.90
11047;DHT22;5576;50.008;10.596;2024-02-21T10:08:01;9.50;99.90
11047;DHT22;5576;50.008;10.596;2024-02-21T10:10:27;9.50;99.90
11047;DHT22;5576;50.008;10.596;2024-02-21T10:12:55;9.50;99.90
11047;DHT22;5576;50.008;10.596;2024-02-21T10:15:22;9.50;99.90
11047;DHT22;5576;50.008;10.596;2024-02-21T10:17:50;9.60;99.90
11047;DHT22;5576;50.008;10.596;2024-02-21T10:20:23;9.40;99.90
11047;DHT22;5576;50.008;10.596;2024-02-21T10:22:49;9.60;99.90
11047;DHT22;5576;50.008;10.596;2024-02-21T10:25:14;9.70;99.90
11047;DHT22;5576;50.008;10.596;2024-02-21T10:27:40;9.80;99.90
11047;DHT22;5576;50.008;10.596;2024-02-21T10:30:12;11.90;99.90
11047;DHT22;5576;50.008;10.596;2024-02-21T10:32:50;9.80;99.90
11047;DHT22;5576;50.008;10.596;2024-02-21T10:35:26;9.80;99.90
11047;DHT22;5576;50.008;10.596;2024-02-21T10:37:53;9.70;99.90
11047;DHT22;5576;50.008;10.596;2024-02-21T10:40:26;9.80;99.90
11047;DHT22;5576;50.008;10.596;2024-02-21T10:42:57;9.80;99.90
11047;DHT22;5576;50.008;10.596;2024-02-21T10:45:30;9.90;99.90
11047;DHT22;5576;50.008;10.596;2024-02-21T10:48:08;9.90;99.90
11047;DHT22;5576;50.008;10.596;2024-02-21T10:50:57;10.10;99.90
11047;DHT22;5576;50.008;10.596;2024-02-21T10:53:34;10.10;99.90
11047;DHT22;5576;50.008;10.596;2024-02-21T10:56:12;10.10;99.90
11047;DHT22;5576;50.008;10.596;2024-02-21T10:58:39;10.10;99.90
11047;DHT22;5576;50.008;10.596;2024-02-21T11:01:06;10.20;99.90
11047;DHT22;5576;50.008;10.596;2024-02-21T11:03:33;10.10;99.90
11047;DHT22;5576;50.008;10.596;2024-02-21T11:05:59;10.20;99.90
11047;DHT22;5576;50.008;10.596;2024-02-21T11:08:25;10.30;99.90
11047;DHT22;5576;50.008;10.596;2024-02-21T11:10:57;10.30;99.90
11047;DHT22;5576;50.008;10.596;2024-02-21T11:13:30;10.40;99.90
11047;DHT22;5576;50.008;10.596;2024-02-21T11:16:21;10.40;99.90
11047;DHT22;5576;50.008;10.596;2024-02-21T11:18:47;10.60;99.90
11047;DHT22;5576;50.008;10.596;2024-02-21T11:21:13;10.60;99.90
11047;DHT22;5576;50.008;10.596;2024-02-21T11:23:39;10.80;99.90
11047;DHT22;5576;50.008;10.596;2024-02-21T11:26:07;10.70;99.90
11047;DHT22;5576;50.008;10.596;2024-02-21T11:28:33;10.60;99.90
11047;DHT22;5576;50.008;10.596;2024-02-21T11:31:14;10.60;99.90
11047;DHT22;5576;50.008;10.596;2024-02-21T11:33:41;10.60;99.90
11047;DHT22;5576;50.008;10.596;2024-02-21T11:36:08;10.60;99.90
11047;DHT22;5576;50.008;10.596;2024-02-21T11:38:34;10.60;99.90
11047;DHT22;5576;50.008;10.596;2024-02-21T11:41:00;10.50;99.90
11047;DHT22;5576;50.008;10.596;2024-02-21T11:43:25;10.50;99.90
11047;DHT22;5576;50.008;10.596;2024-02-21T11:46:00;10.70;99.90
11047;DHT22;5576;50.008;10.596;2024-02-21T11:48:26;10.60;99.90
11047;DHT22;5576;50.008;10.596;2024-02-21T11:50:56;10.60;99.90
11047;DHT22;5576;50.008;10.596;2024-02-21T11:53:22;10.70;99.90
11047;DHT22;5576;50.008;10.596;2024-02-21T11:55:48;10.80;99.90
11047;DHT22;5576;50.008;10.596;2024-02-21T11:58:14;10.80;99.90
11047;DHT22;5576;50.008;10.596;2024-02-21T12:00:40;10.90;99.90
11047;DHT22;5576;50.008;10.596;2024-02-21T12:03:07;14.00;99.90
11047;DHT22;5576;50.008;10.596;2024-02-21T12:05:33;11.00;99.90
11047;DHT22;5576;50.008;10.596;2024-02-21T12:07:59;15.00;99.90
11047;DHT22;5576;50.008;10.596;2024-02-21T12:10:26;11.10;99.90
11047;DHT22;5576;50.008;10.596;2024-02-21T12:12:53;11.90;99.90
11047;DHT22;5576;50.008;10.596;2024-02-21T12:15:23;9.90;99.90
11047;DHT22;5576;50.008;10.596;2024-02-21T12:17:49;9.50;99.90
11047;DHT22;5576;50.008;10.596;2024-02-21T12:20:17;11.20;99.90
11047;DHT22;5576;50.008;10.596;2024-02-21T12:22:43;11.30;99.90
11047;DHT22;5576;50.008;10.596;2024-02-21T12:25:16;11.40;99.90
11047;DHT22;5576;50.008;10.596;2024-02-21T12:27:45;11.40;99.90
11047;DHT22;5576;50.008;10.596;2024-02-21T12:30:11;11.30;99.90
11047;DHT22;5576;50.008;10.596;2024-02-21T12:32:37;11.30;99.90
11047;DHT22;5576;50.008;10.596;2024-02-21T12:35:03;8.70;99.90
11047;DHT22;5576;50.008;10.596;2024-02-21T12:37:29;11.30;99.90
11047;DHT22;5576;50.008;10.596;2024-02-21T12:39:55;11.30;99.90
11047;DHT22;5576;50.008;10.596;2024-02-21T12:42:21;11.50;99.90
11047;DHT22;5576;50.008;10.596;2024-02-21T12:44:49;11.70;99.90
11047;DHT22;5576;50.008;10.596;2024-02-21T12:47:14;11.70;99.90
11047;DHT22;5576;50.008;10.596;2024-02-21T12:49:40;11.80;99.90
11047;DHT22;5576;50.008;10.596;2024-02-21T12:52:06;11.90;99.90
11047;DHT22;5576;50.008;10.596;2024-02-21T12:54:32;9.70;99.90
11047;DHT22;5576;50.008;10.596;2024-02-21T12:56:59;11.90;99.90
11047;DHT22;5576;50.008;10.596;2024-02-21T12:59:28;12.00;99.90
11047;DHT22;5576;50.008;10.596;2024-02-21T13:01:55;12.00;99.90
11047;DHT22;5576;50.008;10.596;2024-02-21T13:04:20;12.10;99.90
11047;DHT22;5576;50.008;10.596;2024-02-21T13:06:48;10.40;99.90
11047;DHT22;5576;50.008;10.596;2024-02-21T13:09:14;12.00;99.90
11047;DHT22;5576;50.008;10.596;2024-02-21T13:11:40;14.60;99.90
11047;DHT22;5576;50.008;10.596;2024-02-21T13:14:07;11.90;99.90
11047;DHT22;5576;50.008;10.596;2024-02-21T13:16:33;11.90;99.90
11047;DHT22;5576;50.008;10.596;2024-02-21T13:19:05;11.80;99.90
11047;DHT22;5576;50.008;10.596;2024-02-21T13:21:30;12.00;99.90
11047;DHT22;5576;50.008;10.596;2024-02-21T13:23:56;12.00;99.90
11047;DHT22;5576;50.008;10.596;2024-02-21T13:26:22;12.00;99.90
11047;DHT22;5576;50.008;10.596;2024-02-21T13:28:48;12.00;99.90
11047;DHT22;5576;50.008;10.596;2024-02-21T13:31:15;13.50;99.90
11047;DHT22;5576;50.008;10.596;2024-02-21T13:33:42;11.90;99.90
11047;DHT22;5576;50.008;10.596;2024-02-21T13:36:10;11.90;99.90
11047;DHT22;5576;50.008;10.596;2024-02-21T13:38:36;12.00;99.90
11047;DHT22;5576;50.008;10.596;2024-02-21T13:41:01;12.10;99.90
11047;DHT22;5576;50.008;10.596;2024-02-21T13:43:27;8.50;99.90
11047;DHT22;5576;50.008;10.596;2024-02-21T13:45:58;12.10;99.90
11047;DHT22;5576;50.008;10.596;2024-02-21T13:48:24;12.10;99.90
11047;DHT22;5576;50.008;10.596;2024-02-21T13:50:50;12.10;99.90
11047;DHT22;5576;50.008;10.596;2024-02-21T13:53:16;10.60;99.90
11047;DHT22;5576;50.008;10.596;2024-02-21T13:55:45;12.10;99.90
11047;DHT22;5576;50.008;10.596;2024-02-21T13:58:11;12.10;99.90
11047;DHT22;5576;50.008;10.596;2024-02-21T14:00:37;12.10;99.90
11047;DHT22;5576;50.008;10.596;2024-02-21T14:03:03;12.10;99.90
11047;DHT22;5576;50.008;10.596;2024-02-21T14:05:28;12.10;99.90
11047;DHT22;5576;50.008;10.596;2024-02-21T14:10:21;12.00;99.90
11047;DHT22;5576;50.008;10.596;2024-02-21T14:12:47;11.90;99.90
11047;DHT22;5576;50.008;10.596;2024-02-21T14:15:14;11.90;99.90
11047;DHT22;5576;50.008;10.596;2024-02-21T14:17:39;11.90;99.90
11047;DHT22;5576;50.008;10.596;2024-02-21T14:20:07;11.80;99.90
11047;DHT22;5576;50.008;10.596;2024-02-21T14:22:33;14.30;99.90
11047;DHT22;5576;50.008;10.596;2024-02-21T14:27:26;10.90;99.90
11047;DHT22;5576;50.008;10.596;2024-02-21T14:32:19;11.70;99.90
11047;DHT22;5576;50.008;10.596;2024-02-21T14:34:48;11.50;99.90
11047;DHT22;5576;50.008;10.596;2024-02-21T14:37:15;11.50;99.90
11047;DHT22;5576;50.008;10.596;2024-02-21T14:39:41;11.50;99.90
11047;DHT22;5576;50.008;10.596;2024-02-21T14:42:07;11.50;99.90
11047;DHT22;5576;50.008;10.596;2024-02-21T14:44:35;11.60;99.90
11047;DHT22;5576;50.008;10.596;2024-02-21T14:47:02;11.50;99.90
11047;DHT22;5576;50.008;10.596;2024-02-21T14:49:29;11.60;99.90
11047;DHT22;5576;50.008;10.596;2024-02-21T14:51:55;11.60;99.90
11047;DHT22;5576;50.008;10.596;2024-02-21T14:54:21;11.60;99.90
11047;DHT22;5576;50.008;10.596;2024-02-21T14:56:46;9.60;99.90
11047;DHT22;5576;50.008;10.596;2024-02-21T15:01:39;11.50;99.90
11047;DHT22;5576;50.008;10.596;2024-02-21T15:04:05;11.50;99.90
11047;DHT22;5576;50.008;10.596;2024-02-21T15:06:31;11.80;99.90
11047;DHT22;5576;50.008;10.596;2024-02-21T15:08:57;11.40;99.90
11047;DHT22;5576;50.008;10.596;2024-02-21T15:11:24;11.40;99.90
11047;DHT22;5576;50.008;10.596;2024-02-21T15:13:50;11.40;99.90
11047;DHT22;5576;50.008;10.596;2024-02-21T15:16:16;11.30;99.90
11047;DHT22;5576;50.008;10.596;2024-02-21T15:18:44;11.30;99.90
11047;DHT22;5576;50.008;10.596;2024-02-21T15:21:10;11.30;99.90
11047;DHT22;5576;50.008;10.596;2024-02-21T15:23:40;11.30;99.90
11047;DHT22;5576;50.008;10.596;2024-02-21T15:26:06;11.30;99.90
11047;DHT22;5576;50.008;10.596;2024-02-21T15:28:32;15.30;99.90
11047;DHT22;5576;50.008;10.596;2024-02-21T15:30:57;11.20;99.90
11047;DHT22;5576;50.008;10.596;2024-02-21T15:33:23;11.20;99.90
11047;DHT22;5576;50.008;10.596;2024-02-21T15:35:49;13.60;99.90
11047;DHT22;5576;50.008;10.596;2024-02-21T15:38:16;11.30;99.90
11047;DHT22;5576;50.008;10.596;2024-02-21T15:40:42;11.20;99.90
11047;DHT22;5576;50.008;10.596;2024-02-21T15:43:07;11.20;99.90
11047;DHT22;5576;50.008;10.596;2024-02-21T15:45:34;11.20;99.90
11047;DHT22;5576;50.008;10.596;2024-02-21T15:48:00;11.20;99.90